Sydenham, Canada
Current Conditions -  °F | °C
As of 10:00 PM on Wednesday 22 Oct 2014 (Local Time) from CYVV Reporting Station
Clear Clear  
Wind Chill: 37°   Ceiling: Unl
Heat Index: 37°   Visibility: 15mi
Dew Point: 34°   Wind: 2mph
Humidity: 87%   Direction: 280°W
Pressure: 30.28"   Gusts: NA
Location:  44.57°N, 80.8°W
Report Text: CYVV 230200Z 28002KT 15SM SKC 03/01 A3028 RMK WND L/V SLP262
Loading
Personal Weather Stations






























Interactive Weather Map
Tropical Storm Tracking
New forecast layout! Learn more

10-Day Weather Forecast

Advertisements
Track Severe Weather on mobile